Ariadne Jacob — ZCTC4 — position and weather

sailwx.info

Track history (hours):
 
Tides and Currents Weather Stations Pressure Air Temp Water Temp Dewpoint Dewpoint Depression Visibility Wind Speed Wind Dir Waves Ship Positions

Ariadne Jacob

Last reported at 2018-Feb-05 16:17 UTC. Time now 2018-Feb-24 04:21 UTC.
Position N 29°32' W 094°54'.
Warning: this ship's position is 18 days out of date.

Length 228 m; draft 8.6 m.

Type: Tanker. MMSI: 319768000.

Date/timePositionNaut miles runAvg speedWind from/ knotsBaromVisibWave heightAir tempDewpointWater temp
2018-Feb-05 16:17N 29°32' W 094°54'310.3
2018-Feb-05 16:00N 29°34' W 094°55'5 9.5
2018-Feb-05 15:30N 29°38' W 094°58'5 8.9
2018-Feb-05 15:00N 29°42' W 095°01'3 6.6
2018-Feb-05 14:30N 29°44' W 095°04'5 4.6
2018-Feb-05 13:25N 29°44' W 095°09'  
2018-Feb-02 09:02N 29°44' W 095°03'5 0.6
2018-Feb-02 00:17N 29°44' W 095°09'2 6.2
2018-Feb-01 23:54N 29°45' W 095°06'2 5.2
2018-Feb-01 23:30N 29°45' W 095°04'3 6.6
2018-Feb-01 23:00N 29°42' W 095°01'1110.8
2018-Feb-01 22:00N 29°33' W 094°55'812.9
2018-Feb-01 21:26N 29°27' W 094°50'14 1.1
2018-Feb-01 08:44N 29°19' W 094°36'0 0.0
2018-Feb-01 08:17N 29°19' W 094°36'0 0.0
2018-Jan-31 22:35N 29°19' W 094°36'0 0.1
2018-Jan-31 22:20N 29°19' W 094°36'0 0.0
2018-Jan-31 17:08N 29°19' W 094°36'0 0.3
2018-Jan-31 16:38N 29°19' W 094°36'0 0.0
2018-Jan-31 16:26N 29°19' W 094°36'0 0.0
2018-Jan-31 15:59N 29°19' W 094°36'0 0.0
2018-Jan-31 12:53N 29°19' W 094°36'0 0.0
2018-Jan-31 12:29N 29°19' W 094°36'0 0.0
2018-Jan-31 11:59N 29°19' W 094°36'0 0.0
2018-Jan-31 11:26N 29°19' W 094°36'0 0.1
2018-Jan-31 10:53N 29°19' W 094°36'0 0.0
2018-Jan-31 10:29N 29°19' W 094°36'0 0.1
2018-Jan-31 09:56N 29°19' W 094°36'0 0.0
2018-Jan-31 09:29N 29°19' W 094°36'0 0.0
2018-Jan-31 08:56N 29°19' W 094°36'0 0.0
2018-Jan-31 08:26N 29°19' W 094°36'0 0.0
2018-Jan-31 07:47N 29°19' W 094°36'0 0.0
2018-Jan-31 07:29N 29°19' W 094°36'0 0.0
2018-Jan-31 06:59N 29°19' W 094°36'0 0.0
2018-Jan-31 06:29N 29°19' W 094°36'0 0.0
2018-Jan-31 05:59N 29°19' W 094°36'0 0.0
2018-Jan-31 05:29N 29°19' W 094°36'0 0.0
2018-Jan-31 01:41N 29°19' W 094°36'0 0.0
2018-Jan-30 15:02N 29°19' W 094°36'0 0.0
2018-Jan-30 14:35N 29°19' W 094°36'0 0.0
2018-Jan-30 14:20N 29°19' W 094°36'0 0.0
2018-Jan-30 13:14N 29°19' W 094°36'0 0.0
2018-Jan-30 12:59N 29°19' W 094°36'0 0.0
2018-Jan-30 12:29N 29°19' W 094°36'0 0.0
2018-Jan-30 07:29N 29°19' W 094°36'0 0.0
2018-Jan-29 15:05N 29°19' W 094°36'0 0.1
2018-Jan-29 14:59N 29°19' W 094°36'0 0.0
2018-Jan-29 14:29N 29°19' W 094°36'0 0.0
2018-Jan-29 13:59N 29°19' W 094°36'0 0.0
2018-Jan-29 13:29N 29°19' W 094°36'0 0.0
2018-Jan-29 12:59N 29°19' W 094°36'0 0.0
2018-Jan-29 12:29N 29°19' W 094°36'0 0.0
2018-Jan-29 11:56N 29°19' W 094°36'0 0.0
2018-Jan-29 11:26N 29°19' W 094°36'  
Track history (hours):
 
Tides and Currents Weather Stations Pressure Air Temp Water Temp Dewpoint Dewpoint Depression Visibility Wind Speed Wind Dir Waves Ship Positions

Ariadne Jacob

Last reported at 2018-Feb-05 16:17 UTC. Time now 2018-Feb-24 04:21 UTC.
Position N 29°32' W 094°54'.
Warning: this ship's position is 18 days out of date.

Length 228 m; draft 8.6 m.

Type: Tanker. MMSI: 319768000.

Date/timePositionNaut miles runAvg speedWind from/ knotsBaromVisibWave heightAir tempDewpointWater temp
2018-Feb-05 16:17N 29°32' W 094°54'310.3
2018-Feb-05 16:00N 29°34' W 094°55'5 9.5
2018-Feb-05 15:30N 29°38' W 094°58'5 8.9
2018-Feb-05 15:00N 29°42' W 095°01'3 6.6
2018-Feb-05 14:30N 29°44' W 095°04'5 4.6
2018-Feb-05 13:25N 29°44' W 095°09'  
2018-Feb-02 09:02N 29°44' W 095°03'5 0.6
2018-Feb-02 00:17N 29°44' W 095°09'2 6.2
2018-Feb-01 23:54N 29°45' W 095°06'2 5.2
2018-Feb-01 23:30N 29°45' W 095°04'3 6.6
2018-Feb-01 23:00N 29°42' W 095°01'1110.8
2018-Feb-01 22:00N 29°33' W 094°55'812.9
2018-Feb-01 21:26N 29°27' W 094°50'14 1.1
2018-Feb-01 08:44N 29°19' W 094°36'0 0.0
2018-Feb-01 08:17N 29°19' W 094°36'0 0.0
2018-Jan-31 22:35N 29°19' W 094°36'0 0.1
2018-Jan-31 22:20N 29°19' W 094°36'0 0.0
2018-Jan-31 17:08N 29°19' W 094°36'0 0.3
2018-Jan-31 16:38N 29°19' W 094°36'0 0.0
2018-Jan-31 16:26N 29°19' W 094°36'0 0.0
2018-Jan-31 15:59N 29°19' W 094°36'0 0.0
2018-Jan-31 12:53N 29°19' W 094°36'0 0.0
2018-Jan-31 12:29N 29°19' W 094°36'0 0.0
2018-Jan-31 11:59N 29°19' W 094°36'0 0.0
2018-Jan-31 11:26N 29°19' W 094°36'0 0.1
2018-Jan-31 10:53N 29°19' W 094°36'0 0.0
2018-Jan-31 10:29N 29°19' W 094°36'0 0.1
2018-Jan-31 09:56N 29°19' W 094°36'0 0.0
2018-Jan-31 09:29N 29°19' W 094°36'0 0.0
2018-Jan-31 08:56N 29°19' W 094°36'0 0.0
2018-Jan-31 08:26N 29°19' W 094°36'0 0.0
2018-Jan-31 07:47N 29°19' W 094°36'0 0.0
2018-Jan-31 07:29N 29°19' W 094°36'0 0.0
2018-Jan-31 06:59N 29°19' W 094°36'0 0.0
2018-Jan-31 06:29N 29°19' W 094°36'0 0.0
2018-Jan-31 05:59N 29°19' W 094°36'0 0.0
2018-Jan-31 05:29N 29°19' W 094°36'0 0.0
2018-Jan-31 01:41N 29°19' W 094°36'0 0.0
2018-Jan-30 15:02N 29°19' W 094°36'0 0.0
2018-Jan-30 14:35N 29°19' W 094°36'0 0.0
2018-Jan-30 14:20N 29°19' W 094°36'0 0.0
2018-Jan-30 13:14N 29°19' W 094°36'0 0.0
2018-Jan-30 12:59N 29°19' W 094°36'0 0.0
2018-Jan-30 12:29N 29°19' W 094°36'0 0.0
2018-Jan-30 07:29N 29°19' W 094°36'0 0.0
2018-Jan-29 15:05N 29°19' W 094°36'0 0.1
2018-Jan-29 14:59N 29°19' W 094°36'0 0.0
2018-Jan-29 14:29N 29°19' W 094°36'0 0.0
2018-Jan-29 13:59N 29°19' W 094°36'0 0.0
2018-Jan-29 13:29N 29°19' W 094°36'0 0.0
2018-Jan-29 12:59N 29°19' W 094°36'0 0.0
2018-Jan-29 12:29N 29°19' W 094°36'0 0.0
2018-Jan-29 11:56N 29°19' W 094°36'0 0.0
2018-Jan-29 11:26N 29°19' W 094°36'  

Dump ship's entire track history